Accueil
METAR-TAF:

METAR-TAF

Aéroports :

Angers, France

Angers Loire Aéroport

latitude: 47-33-37N, longitude: 000-18-44W, altitude: 59 m

Observation

Le bulletin a été fait il y a 31 minutes, à 06:30 UTC
Vent 5 kt de nord-ouest, variant entre ouest/sud-ouest et nord
Température 18°C
Humidité 73%
Pression 1021 hPa
Visibilité 10 km ou plus
Nuages épars à une hauteur de 1800 ft
Ciel couvert à une hauteur de 3700 ft

METAR: LFJR 230630Z AUTO 31005KT 240V360 9999 SCT018 OVC037 18/13 Q1021 NOSIG

Heure: 09:01 (07:01 UTC)

Prévision

Le bulletin a été fait il y a 2 heures et 1 minutes, à 05:00 UTC
Prévision valable du 23 à 06 UTC au 23 à 15 UTC
Vent 6 kt de ouest
Visibilité 10 km ou plus
Nuages fragmentés à une hauteur de 2600 ft
Evoluant progressivement
du 23 à 10 UTC au 23 à 12 UTC
Visibilité 10 km ou plus
pas de nuages en-dessous de 1500 mètres et pas de cumulonimbus.

TAF: LFJR 230500Z 2306/2315 28006KT 9999 BKN026 BECMG 2310/2312 CAVOK

Observations et prévisions météorologiques de plus de 4000 aéroports (messages METAR et TAF).

Les stations disponibles sont représentées par des disques jaunes et rouges sur la carte.

Passer la souris dessus pour voir le nom de la station.

Cliquer dessus pour voir les observations et prévisions météorologiques.

Pour changer de carte: cliquez sur les boutons verts avec une croix noire pour zoomer, sur le bouton vert avec un tiret pour effectuer un zoom arrière, ou sur les flèches vertes pour les cartes adjacentes.


METAR-TAF: